createdAt,value
2023-03-15T00:02:10.534Z,5.19
2023-03-15T00:04:43.590Z,5.12
2023-03-15T00:07:16.463Z,5.12
2023-03-15T00:09:50.868Z,5.19
2023-03-15T00:12:24.470Z,5.10
2023-03-15T00:14:58.340Z,5.14
2023-03-15T00:17:34.732Z,4.77
2023-03-15T00:20:08.976Z,4.93
2023-03-15T00:22:41.914Z,4.96
2023-03-15T00:25:16.330Z,4.92
2023-03-15T00:27:49.420Z,4.92
2023-03-15T00:30:22.795Z,4.86
2023-03-15T00:32:55.905Z,4.75
2023-03-15T00:35:29.036Z,4.63
2023-03-15T00:38:01.858Z,4.70
2023-03-15T00:40:37.102Z,4.65
2023-03-15T00:43:10.148Z,4.65
2023-03-15T00:45:45.298Z,4.71
2023-03-15T00:48:18.441Z,4.68
2023-03-15T00:50:51.682Z,4.64
2023-03-15T00:53:24.694Z,4.55
2023-03-15T00:56:00.630Z,4.55
2023-03-15T00:58:33.804Z,4.65
2023-03-15T01:01:07.810Z,4.53
2023-03-15T01:03:41.337Z,4.42
2023-03-15T01:06:15.170Z,4.38
2023-03-15T01:08:48.239Z,4.28
2023-03-15T01:11:24.403Z,4.38
2023-03-15T01:13:59.311Z,4.26
2023-03-15T01:16:32.850Z,4.28
2023-03-15T01:19:05.945Z,4.31
2023-03-15T01:21:39.322Z,4.28
2023-03-15T01:24:13.957Z,4.38
2023-03-15T01:26:48.523Z,4.30
2023-03-15T01:29:21.625Z,4.27
2023-03-15T01:31:54.777Z,4.36
2023-03-15T01:34:27.686Z,4.11
2023-03-15T01:37:02.840Z,4.33
2023-03-15T01:39:35.786Z,4.25
2023-03-15T01:42:10.997Z,4.15
2023-03-15T01:44:51.618Z,4.38
2023-03-15T01:47:26.161Z,4.32
2023-03-15T01:50:01.604Z,4.19
2023-03-15T01:52:37.536Z,4.13
2023-03-15T01:55:12.781Z,4.13
2023-03-15T01:57:52.294Z,4.14
2023-03-15T02:00:25.380Z,3.95
2023-03-15T02:03:00.530Z,3.60
2023-03-15T02:05:35.439Z,3.48
2023-03-15T02:08:09.607Z,3.49
2023-03-15T02:10:44.579Z,3.69
2023-03-15T02:13:22.769Z,3.65
2023-03-15T02:15:56.147Z,3.66
2023-03-15T02:18:29.617Z,3.40
2023-03-15T02:21:06.919Z,3.49
2023-03-15T02:23:40.003Z,3.51
2023-03-15T02:26:18.984Z,3.41
2023-03-15T02:28:54.865Z,3.42
2023-03-15T02:31:28.602Z,3.57
2023-03-15T02:34:04.037Z,3.60
2023-03-15T02:36:37.771Z,3.77
2023-03-15T02:39:15.330Z,3.69
2023-03-15T02:41:50.605Z,3.50
2023-03-15T02:44:28.604Z,3.46
2023-03-15T02:47:03.559Z,3.49
2023-03-15T02:49:39.261Z,3.59
2023-03-15T02:52:14.106Z,3.41
2023-03-15T02:54:47.412Z,3.53
2023-03-15T02:57:20.682Z,3.06
2023-03-15T02:59:55.599Z,3.30
2023-03-15T03:02:28.768Z,3.34
2023-03-15T03:05:02.136Z,3.29
2023-03-15T03:07:36.084Z,3.57
2023-03-15T03:10:10.743Z,3.78
2023-03-15T03:12:44.152Z,3.77
2023-03-15T03:15:19.010Z,3.52
2023-03-15T03:17:54.544Z,3.45
2023-03-15T03:20:28.395Z,3.43
2023-03-15T03:23:05.880Z,3.55
2023-03-15T03:25:38.826Z,3.38
2023-03-15T03:28:11.855Z,3.42
2023-03-15T03:30:46.571Z,3.62
2023-03-15T03:33:19.848Z,3.86
2023-03-15T03:35:54.246Z,3.76
2023-03-15T03:38:27.298Z,3.52
2023-03-15T03:41:00.405Z,3.61
2023-03-15T03:43:33.383Z,3.84
2023-03-15T03:46:07.999Z,3.81
2023-03-15T03:48:42.217Z,3.81
2023-03-15T03:51:15.243Z,3.84
2023-03-15T03:53:48.257Z,3.69
2023-03-15T03:56:21.605Z,3.66
2023-03-15T03:58:54.909Z,3.73
2023-03-15T04:01:29.504Z,3.52
2023-03-15T04:04:02.518Z,3.30
2023-03-15T04:06:35.696Z,3.45
2023-03-15T04:09:11.267Z,3.16
2023-03-15T04:11:45.042Z,3.05
2023-03-15T04:14:18.914Z,3.30
2023-03-15T04:16:54.608Z,3.29
2023-03-15T04:19:27.775Z,3.23
2023-03-15T04:22:07.002Z,3.31
2023-03-15T04:24:40.589Z,3.34
2023-03-15T04:27:14.923Z,3.47
2023-03-15T04:29:48.028Z,3.29
2023-03-15T04:32:22.604Z,3.56
2023-03-15T04:34:56.020Z,3.64
2023-03-15T04:37:29.036Z,3.55
2023-03-15T04:40:02.409Z,3.70
2023-03-15T04:42:36.160Z,3.20
2023-03-15T04:45:11.164Z,3.30
2023-03-15T04:47:45.621Z,3.21
2023-03-15T04:50:18.505Z,3.08
2023-03-15T04:52:52.204Z,3.28
2023-03-15T04:55:25.330Z,3.21
2023-03-15T04:57:58.852Z,3.27
2023-03-15T05:00:31.949Z,3.29
2023-03-15T05:03:06.569Z,3.48
2023-03-15T05:05:39.510Z,3.69
2023-03-15T05:08:12.385Z,3.72
2023-03-15T05:10:45.808Z,3.79
2023-03-15T05:13:20.895Z,3.81
2023-03-15T05:15:54.478Z,3.86
2023-03-15T05:18:28.726Z,3.64
2023-03-15T05:21:01.671Z,3.75
2023-03-15T05:23:35.440Z,3.86
2023-03-15T05:26:08.675Z,3.77
2023-03-15T05:28:41.823Z,3.70
2023-03-15T05:31:14.690Z,3.75
2023-03-15T05:33:49.146Z,3.68
2023-03-15T05:36:22.190Z,3.73
2023-03-15T05:38:55.208Z,3.55
2023-03-15T05:41:28.535Z,3.74
2023-03-15T05:44:01.882Z,3.62
2023-03-15T05:46:34.856Z,3.78
2023-03-15T05:49:09.329Z,3.83
2023-03-15T05:51:42.242Z,3.96
2023-03-15T05:54:15.265Z,4.06
2023-03-15T05:56:48.365Z,3.87
2023-03-15T05:59:22.017Z,3.68
2023-03-15T06:01:54.918Z,3.56
2023-03-15T06:04:29.554Z,3.77
2023-03-15T06:07:02.583Z,3.94
2023-03-15T06:09:35.517Z,3.71
2023-03-15T06:12:08.809Z,3.91
2023-03-15T06:14:43.332Z,3.63
2023-03-15T06:17:16.457Z,3.70
2023-03-15T06:19:50.984Z,3.70
2023-03-15T06:22:24.548Z,3.69
2023-03-15T06:24:57.708Z,3.83
2023-03-15T06:27:31.280Z,3.88
2023-03-15T06:30:05.390Z,3.68
2023-03-15T06:32:38.432Z,3.90
2023-03-15T06:35:12.811Z,4.07
2023-03-15T06:37:45.991Z,4.13
2023-03-15T06:40:19.288Z,4.09
2023-03-15T06:42:52.792Z,4.08
2023-03-15T06:45:26.170Z,3.94
2023-03-15T06:47:59.279Z,4.01
2023-03-15T06:50:46.160Z,4.14
2023-03-15T06:53:20.586Z,4.30
2023-03-15T06:55:53.719Z,4.30
2023-03-15T06:58:26.816Z,4.36
2023-03-15T07:01:00.005Z,4.27
2023-03-15T07:03:33.038Z,4.62
2023-03-15T07:06:07.490Z,4.79
2023-03-15T07:08:41.127Z,4.75
2023-03-15T07:11:14.444Z,4.78
2023-03-15T07:13:48.407Z,4.96
2023-03-15T07:16:21.684Z,4.53
2023-03-15T07:18:56.705Z,4.46
2023-03-15T07:21:31.223Z,4.63
2023-03-15T07:24:04.535Z,4.66
2023-03-15T07:26:37.436Z,4.81
2023-03-15T07:29:10.673Z,4.69
2023-03-15T07:31:43.991Z,4.67
2023-03-15T07:34:17.232Z,4.98
2023-03-15T07:36:51.764Z,4.95
2023-03-15T07:39:26.766Z,5.17
2023-03-15T07:42:00.838Z,5.09
2023-03-15T07:44:33.798Z,4.93
2023-03-15T07:47:07.353Z,5.15
2023-03-15T07:49:40.659Z,5.28
2023-03-15T07:52:15.397Z,5.37
2023-03-15T07:54:48.677Z,5.79
2023-03-15T07:57:22.028Z,5.98
2023-03-15T07:59:55.142Z,6.02
2023-03-15T08:02:30.578Z,6.13
2023-03-15T08:05:04.642Z,6.23
2023-03-15T08:07:39.331Z,6.03
2023-03-15T08:10:12.477Z,6.20
2023-03-15T08:12:46.532Z,5.99
2023-03-15T08:15:20.192Z,5.98
2023-03-15T08:17:53.404Z,6.45
2023-03-15T08:20:29.680Z,6.82
2023-03-15T08:23:04.513Z,7.24
2023-03-15T08:25:41.120Z,7.36
2023-03-15T08:28:14.383Z,7.30
2023-03-15T08:30:47.375Z,7.18
2023-03-15T08:33:22.366Z,7.07
2023-03-15T08:35:55.600Z,7.07
2023-03-15T08:38:29.972Z,7.36
2023-03-15T08:41:03.565Z,7.45
2023-03-15T08:43:36.619Z,7.63
2023-03-15T08:46:09.628Z,7.48
2023-03-15T08:48:42.835Z,7.59
2023-03-15T08:51:15.987Z,7.56
2023-03-15T08:53:51.918Z,7.53
2023-03-15T08:56:24.900Z,7.52
2023-03-15T08:58:57.874Z,7.67
2023-03-15T09:01:31.391Z,7.66
2023-03-15T09:04:05.238Z,7.75
2023-03-15T09:06:38.480Z,7.95
2023-03-15T09:09:17.491Z,8.04
2023-03-15T09:11:56.278Z,8.23
2023-03-15T09:14:30.075Z,8.60
2023-03-15T09:17:05.185Z,8.68
2023-03-15T09:19:38.418Z,8.79
2023-03-15T09:22:17.170Z,8.99
2023-03-15T09:24:58.313Z,8.78
2023-03-15T09:27:31.583Z,8.82
2023-03-15T09:30:04.802Z,8.92
2023-03-15T09:32:37.973Z,8.78
2023-03-15T09:35:13.567Z,8.83
2023-03-15T09:37:46.774Z,9.01
2023-03-15T09:40:23.435Z,9.10
2023-03-15T09:43:14.328Z,9.12
2023-03-15T09:45:56.882Z,9.19
2023-03-15T09:48:33.134Z,9.17
2023-03-15T09:51:09.842Z,9.04
2023-03-15T09:53:46.833Z,9.15
2023-03-15T09:56:23.805Z,9.33
2023-03-15T09:58:59.232Z,9.65
2023-03-15T10:01:36.941Z,9.88
2023-03-15T10:04:14.543Z,10.00
2023-03-15T10:06:51.267Z,10.08
2023-03-15T10:09:26.786Z,10.28
2023-03-15T10:12:05.483Z,10.42
2023-03-15T10:14:47.242Z,10.51
2023-03-15T10:17:25.688Z,10.61
2023-03-15T10:20:02.030Z,10.56
2023-03-15T10:22:38.372Z,10.66
2023-03-15T10:25:14.153Z,10.70
2023-03-15T10:27:49.889Z,10.76
2023-03-15T10:30:24.182Z,10.70
2023-03-15T10:32:59.617Z,10.65
2023-03-15T10:35:33.233Z,10.80
2023-03-15T10:38:15.502Z,10.82
2023-03-15T10:40:49.401Z,10.82
2023-03-15T10:43:26.376Z,10.83
2023-03-15T10:46:01.095Z,10.90
2023-03-15T10:48:35.020Z,11.19
2023-03-15T10:51:22.312Z,11.17
2023-03-15T10:53:56.992Z,11.15
2023-03-15T10:56:33.523Z,11.14
2023-03-15T10:59:16.185Z,11.11
2023-03-15T11:01:50.374Z,11.02
2023-03-15T11:04:26.889Z,11.22
2023-03-15T11:07:03.542Z,11.31
2023-03-15T11:09:40.559Z,11.35
2023-03-15T11:12:19.411Z,11.50
2023-03-15T11:14:58.159Z,11.73
2023-03-15T11:17:33.217Z,11.79
2023-03-15T11:20:20.448Z,11.72
2023-03-15T11:22:55.211Z,11.78
2023-03-15T11:25:31.924Z,11.93
2023-03-15T11:28:05.041Z,11.81
2023-03-15T11:30:40.372Z,11.90
2023-03-15T11:33:22.573Z,11.89
2023-03-15T11:35:57.522Z,12.14
2023-03-15T11:38:34.958Z,12.14
2023-03-15T11:41:12.737Z,12.11
2023-03-15T11:43:50.652Z,12.21
2023-03-15T11:46:29.326Z,12.25
2023-03-15T11:49:05.373Z,12.30
2023-03-15T11:51:38.497Z,12.57
2023-03-15T11:54:14.138Z,12.53
2023-03-15T11:56:49.041Z,12.46
2023-03-15T11:59:28.780Z,12.39
2023-03-15T12:02:23.262Z,12.32
2023-03-15T12:05:01.788Z,12.26
2023-03-15T12:07:38.534Z,12.34
2023-03-15T12:10:41.478Z,12.24
2023-03-15T12:13:19.346Z,12.26
2023-03-15T12:15:53.306Z,12.32
2023-03-15T12:18:31.269Z,12.36
2023-03-15T12:21:09.444Z,12.75
2023-03-15T12:23:44.438Z,12.70
2023-03-15T12:26:24.455Z,12.54
2023-03-15T12:29:05.143Z,12.48
2023-03-15T12:31:45.376Z,12.40
2023-03-15T12:34:25.784Z,12.41
2023-03-15T12:37:01.788Z,12.47
2023-03-15T12:39:42.607Z,12.49
2023-03-15T12:42:30.727Z,12.41
2023-03-15T12:45:22.596Z,12.30
2023-03-15T12:48:12.831Z,12.33
2023-03-15T12:50:52.900Z,12.09
2023-03-15T12:53:30.366Z,12.14
2023-03-15T12:56:20.476Z,12.15
2023-03-15T12:58:55.536Z,12.12
2023-03-15T13:01:29.027Z,12.09
2023-03-15T13:04:04.145Z,12.09
2023-03-15T13:06:46.560Z,12.05
2023-03-15T13:09:24.652Z,12.16
2023-03-15T13:12:02.357Z,12.17
2023-03-15T13:14:40.151Z,12.34
2023-03-15T13:17:22.011Z,12.19
2023-03-15T13:19:57.178Z,12.24
2023-03-15T13:22:37.432Z,12.18
2023-03-15T13:25:17.437Z,12.13
2023-03-15T13:27:53.424Z,12.14
2023-03-15T13:30:33.454Z,12.16
2023-03-15T13:33:07.546Z,12.06
2023-03-15T13:35:44.289Z,12.04
2023-03-15T13:38:25.554Z,11.99
2023-03-15T13:40:59.336Z,11.88
2023-03-15T13:43:33.712Z,11.85
2023-03-15T13:46:07.320Z,11.82
2023-03-15T13:48:42.199Z,11.74
2023-03-15T13:51:19.058Z,11.66
2023-03-15T13:53:55.591Z,11.58
2023-03-15T13:56:37.460Z,11.60
2023-03-15T13:59:17.339Z,11.67
2023-03-15T14:01:54.153Z,11.62
2023-03-15T14:04:27.720Z,11.52
2023-03-15T14:07:13.157Z,11.55
2023-03-15T14:09:47.750Z,11.51
2023-03-15T14:12:23.234Z,11.53
2023-03-15T14:14:56.448Z,11.44
2023-03-15T14:17:30.527Z,11.39
2023-03-15T14:20:09.268Z,11.40
2023-03-15T14:22:43.353Z,11.30
2023-03-15T14:25:22.381Z,11.25
2023-03-15T14:27:55.519Z,11.25
2023-03-15T14:30:28.800Z,11.22
2023-03-15T14:33:04.636Z,11.17
2023-03-15T14:35:44.614Z,11.12
2023-03-15T14:38:23.184Z,11.08
2023-03-15T14:41:10.999Z,10.99
2023-03-15T14:43:44.238Z,10.98
2023-03-15T14:46:17.388Z,10.94
2023-03-15T14:48:50.639Z,10.89
2023-03-15T14:51:24.538Z,10.91
2023-03-15T14:53:58.346Z,10.90
2023-03-15T14:56:36.906Z,10.84
2023-03-15T14:59:13.607Z,10.81
2023-03-15T15:01:49.803Z,10.77
2023-03-15T15:04:22.910Z,10.75
2023-03-15T15:06:56.549Z,10.68
2023-03-15T15:09:31.098Z,10.65
2023-03-15T15:12:06.797Z,10.63
2023-03-15T15:14:42.769Z,10.61
2023-03-15T15:17:16.445Z,10.56
2023-03-15T15:19:49.704Z,10.56
2023-03-15T15:22:23.678Z,10.54
2023-03-15T15:24:57.158Z,10.56
2023-03-15T15:27:31.710Z,10.56
2023-03-15T15:30:05.271Z,10.51
2023-03-15T15:32:38.489Z,10.44
2023-03-15T15:35:13.980Z,10.43
2023-03-15T15:37:47.745Z,10.46
2023-03-15T15:40:22.269Z,10.43
2023-03-15T15:42:57.786Z,10.39
2023-03-15T15:45:34.325Z,10.39
2023-03-15T15:48:07.860Z,10.39
2023-03-15T15:50:40.790Z,10.38
2023-03-15T15:53:17.634Z,10.29
2023-03-15T15:55:50.953Z,10.31
2023-03-15T15:58:26.084Z,10.32
2023-03-15T16:00:59.285Z,10.21
2023-03-15T16:03:32.393Z,10.19
2023-03-15T16:06:05.915Z,10.21
2023-03-15T16:08:39.827Z,10.19
2023-03-15T16:11:14.569Z,10.17
2023-03-15T16:13:51.739Z,10.17
2023-03-15T16:16:25.076Z,10.11
2023-03-15T16:18:58.492Z,10.06
2023-03-15T16:21:33.863Z,10.06
2023-03-15T16:24:08.614Z,10.06
2023-03-15T16:26:42.369Z,10.03
2023-03-15T16:29:21.280Z,10.02
2023-03-15T16:31:55.929Z,9.96
2023-03-15T16:34:34.490Z,9.94
2023-03-15T16:37:07.714Z,9.94
2023-03-15T16:39:41.424Z,9.90
2023-03-15T16:42:15.334Z,9.88
2023-03-15T16:44:51.533Z,9.94
2023-03-15T16:47:24.649Z,9.87
2023-03-15T16:49:57.672Z,9.87
2023-03-15T16:52:32.815Z,9.89
2023-03-15T16:55:06.656Z,9.86
2023-03-15T16:57:39.944Z,9.83
2023-03-15T17:00:17.166Z,9.81
2023-03-15T17:02:51.736Z,9.79
2023-03-15T17:05:26.188Z,9.79
2023-03-15T17:08:00.804Z,9.79
2023-03-15T17:10:34.156Z,9.74
2023-03-15T17:13:07.954Z,9.75
2023-03-15T17:15:42.797Z,9.73
2023-03-15T17:18:17.984Z,9.59
2023-03-15T17:20:51.309Z,9.66
2023-03-15T17:23:24.350Z,9.69
2023-03-15T17:25:57.711Z,9.69
2023-03-15T17:28:30.828Z,9.65
2023-03-15T17:31:24.006Z,9.64
2023-03-15T17:33:58.106Z,9.62
2023-03-15T17:36:34.395Z,9.57
2023-03-15T17:39:08.685Z,9.63
2023-03-15T17:41:43.967Z,9.47
2023-03-15T17:44:16.831Z,9.55
2023-03-15T17:46:51.442Z,9.54
2023-03-15T17:49:24.506Z,9.49
2023-03-15T17:51:57.849Z,9.40
2023-03-15T17:54:31.494Z,9.42
2023-03-15T17:57:05.018Z,9.40
2023-03-15T17:59:38.111Z,9.41
2023-03-15T18:02:15.834Z,9.42
2023-03-15T18:04:49.113Z,9.39
2023-03-15T18:07:23.984Z,9.39
2023-03-15T18:09:57.207Z,9.33
2023-03-15T18:12:30.611Z,9.34
2023-03-15T18:15:05.189Z,9.31
2023-03-15T18:17:40.035Z,9.33
2023-03-15T18:20:14.310Z,9.28
2023-03-15T18:22:47.449Z,9.26
2023-03-15T18:25:21.640Z,9.24
2023-03-15T18:27:54.845Z,9.17
2023-03-15T18:30:28.976Z,9.25
2023-03-15T18:33:04.324Z,9.22
2023-03-15T18:35:38.553Z,9.13
2023-03-15T18:38:11.824Z,9.13
2023-03-15T18:40:45.381Z,9.09
2023-03-15T18:43:18.999Z,9.01
2023-03-15T18:45:52.203Z,8.89
2023-03-15T18:48:39.639Z,8.88
2023-03-15T18:51:14.213Z,8.85
2023-03-15T18:53:47.185Z,8.80
2023-03-15T18:56:21.366Z,8.75
2023-03-15T18:58:55.213Z,8.68
2023-03-15T19:01:29.031Z,8.70
2023-03-15T19:04:03.886Z,8.67
2023-03-15T19:06:37.593Z,8.56
2023-03-15T19:09:10.851Z,8.61
2023-03-15T19:11:44.524Z,8.66
2023-03-15T19:14:18.452Z,8.63
2023-03-15T19:16:54.055Z,8.53
2023-03-15T19:19:29.351Z,8.45
2023-03-15T19:22:03.076Z,8.47
2023-03-15T19:24:36.392Z,8.46
2023-03-15T19:27:09.696Z,8.45
2023-03-15T19:29:43.059Z,8.46
2023-03-15T19:32:16.136Z,8.42
2023-03-15T19:34:50.533Z,8.33
2023-03-15T19:37:23.731Z,8.28
2023-03-15T19:39:56.671Z,8.30
2023-03-15T19:42:29.968Z,8.40
2023-03-15T19:45:03.382Z,8.37
2023-03-15T19:47:38.549Z,8.35
2023-03-15T19:50:13.997Z,8.32
2023-03-15T19:52:47.051Z,8.27
2023-03-15T19:55:21.097Z,8.32
2023-03-15T19:57:54.634Z,8.26
2023-03-15T20:00:28.118Z,8.33
2023-03-15T20:03:01.113Z,8.28
2023-03-15T20:05:35.595Z,8.34
2023-03-15T20:08:10.145Z,8.34
2023-03-15T20:10:44.045Z,8.30
2023-03-15T20:13:17.952Z,8.30
2023-03-15T20:15:50.988Z,8.31
2023-03-15T20:18:24.431Z,8.25
2023-03-15T20:21:00.858Z,8.22
2023-03-15T20:23:34.936Z,8.23
2023-03-15T20:26:10.991Z,8.17
2023-03-15T20:28:47.160Z,8.17
2023-03-15T20:31:20.571Z,8.05
2023-03-15T20:33:53.719Z,8.07
2023-03-15T20:36:28.226Z,8.06
2023-03-15T20:39:01.648Z,7.95
2023-03-15T20:41:34.760Z,8.00
2023-03-15T20:44:08.151Z,7.89
2023-03-15T20:46:41.607Z,7.92
2023-03-15T20:49:15.863Z,7.96
2023-03-15T20:51:50.427Z,7.93
2023-03-15T20:54:23.714Z,7.94
2023-03-15T20:56:57.043Z,7.96
2023-03-15T20:59:30.198Z,7.90
2023-03-15T21:02:04.198Z,7.94
2023-03-15T21:04:37.372Z,7.90
2023-03-15T21:07:11.777Z,7.84
2023-03-15T21:09:45.079Z,7.79
2023-03-15T21:12:20.369Z,7.70
2023-03-15T21:14:53.702Z,7.67
2023-03-15T21:17:27.288Z,7.68
2023-03-15T21:20:01.031Z,7.71
2023-03-15T21:22:35.933Z,7.69
2023-03-15T21:25:09.459Z,7.80
2023-03-15T21:27:42.715Z,7.71
2023-03-15T21:30:15.947Z,7.77
2023-03-15T21:32:49.126Z,7.75
2023-03-15T21:35:23.264Z,7.76
2023-03-15T21:37:58.245Z,7.61
2023-03-15T21:40:31.463Z,7.61
2023-03-15T21:43:04.739Z,7.75
2023-03-15T21:45:37.958Z,7.72
2023-03-15T21:48:11.785Z,7.73
2023-03-15T21:50:44.749Z,7.73
2023-03-15T21:53:19.090Z,7.67
2023-03-15T21:55:53.746Z,7.72
2023-03-15T21:58:27.149Z,7.69
2023-03-15T22:01:00.562Z,7.69
2023-03-15T22:03:34.493Z,7.60
2023-03-15T22:06:08.034Z,7.66
2023-03-15T22:08:42.528Z,7.74
2023-03-15T22:11:15.823Z,7.67
2023-03-15T22:13:49.471Z,7.62
2023-03-15T22:16:23.216Z,7.75
2023-03-15T22:18:56.207Z,7.76
2023-03-15T22:21:29.552Z,7.79
2023-03-15T22:24:03.933Z,7.71
2023-03-15T22:26:37.219Z,7.67
2023-03-15T22:29:11.002Z,7.71
2023-03-15T22:31:43.883Z,7.69
2023-03-15T22:34:16.865Z,7.74
2023-03-15T22:36:49.826Z,7.74
2023-03-15T22:39:24.245Z,7.72
2023-03-15T22:41:57.617Z,7.71
2023-03-15T22:44:30.797Z,7.81
2023-03-15T22:47:03.757Z,7.87
2023-03-15T22:49:36.969Z,7.89
2023-03-15T22:52:09.951Z,7.93
2023-03-15T22:54:44.335Z,7.94
2023-03-15T22:57:17.580Z,7.95
2023-03-15T22:59:52.896Z,7.83
2023-03-15T23:02:26.202Z,7.85
2023-03-15T23:04:59.697Z,7.82
2023-03-15T23:07:32.666Z,7.72
2023-03-15T23:10:08.287Z,7.79
2023-03-15T23:12:42.218Z,7.84
2023-03-15T23:15:15.613Z,7.91
2023-03-15T23:17:49.501Z,7.93
2023-03-15T23:20:23.687Z,7.96
2023-03-15T23:22:57.105Z,7.95
2023-03-15T23:25:35.862Z,8.05
2023-03-15T23:28:08.909Z,7.95
2023-03-15T23:30:45.731Z,7.95
2023-03-15T23:33:18.910Z,7.98
2023-03-15T23:35:52.204Z,8.09
2023-03-15T23:38:25.398Z,8.10
2023-03-15T23:41:00.179Z,8.14
2023-03-15T23:43:33.542Z,8.04
2023-03-15T23:46:06.761Z,8.08
2023-03-15T23:48:40.129Z,8.16
2023-03-15T23:51:13.198Z,8.16
2023-03-15T23:53:46.180Z,8.16
2023-03-15T23:56:21.022Z,8.13
2023-03-15T23:58:53.977Z,8.19
